createdAt,value
2018-06-04T00:01:08.803Z,35.00
2018-06-04T00:03:37.095Z,34.93
2018-06-04T00:06:05.437Z,34.77
2018-06-04T00:08:33.748Z,34.33
2018-06-04T00:11:02.123Z,34.87
2018-06-04T00:13:31.117Z,34.63
2018-06-04T00:15:59.479Z,35.57
2018-06-04T00:18:27.778Z,36.67
2018-06-04T00:20:56.174Z,35.97
2018-06-04T00:23:24.531Z,36.23
2018-06-04T00:25:53.095Z,36.03
2018-06-04T00:28:21.424Z,37.67
2018-06-04T00:30:49.896Z,36.93
2018-06-04T00:33:18.231Z,37.67
2018-06-04T00:35:46.526Z,37.00
2018-06-04T00:38:14.924Z,36.03
2018-06-04T00:40:43.240Z,32.80
2018-06-04T00:43:11.588Z,32.83
2018-06-04T00:45:39.910Z,35.40
2018-06-04T00:48:08.270Z,33.43
2018-06-04T00:50:36.583Z,33.77
2018-06-04T00:53:04.887Z,35.50
2018-06-04T00:55:43.237Z,35.37
2018-06-04T00:58:11.536Z,33.53
2018-06-04T01:00:39.864Z,32.43
2018-06-04T01:03:08.219Z,30.17
2018-06-04T01:05:36.514Z,30.67
2018-06-04T01:08:04.867Z,28.87
2018-06-04T01:10:33.172Z,26.67
2018-06-04T01:13:01.534Z,27.70
2018-06-04T01:15:29.876Z,25.93
2018-06-04T01:17:58.198Z,26.43
2018-06-04T01:20:26.566Z,25.50
2018-06-04T01:22:54.964Z,24.77
2018-06-04T01:25:23.357Z,24.43
2018-06-04T01:27:51.712Z,23.03
2018-06-04T01:30:20.087Z,23.87
2018-06-04T01:32:48.458Z,25.40
2018-06-04T01:35:16.785Z,27.90
2018-06-04T01:37:45.115Z,30.63
2018-06-04T01:40:13.420Z,36.03
2018-06-04T01:42:41.812Z,36.70
2018-06-04T01:45:10.125Z,35.33
2018-06-04T01:47:38.432Z,37.13
2018-06-04T01:50:06.780Z,38.93
2018-06-04T01:52:35.104Z,40.70
2018-06-04T01:55:03.433Z,40.97
2018-06-04T01:57:31.790Z,41.10
2018-06-04T02:00:00.139Z,41.70
2018-06-04T02:02:28.449Z,43.53
2018-06-04T02:04:56.767Z,40.57
2018-06-04T02:07:25.141Z,41.83
2018-06-04T02:09:53.466Z,40.00
2018-06-04T02:12:21.810Z,38.87
2018-06-04T02:14:50.138Z,35.77
2018-06-04T02:17:18.452Z,33.93
2018-06-04T02:19:46.801Z,33.30
2018-06-04T02:22:15.143Z,30.97
2018-06-04T02:24:43.475Z,31.37
2018-06-04T02:27:11.820Z,30.23
2018-06-04T02:29:40.157Z,31.97
2018-06-04T02:32:08.475Z,30.20
2018-06-04T02:34:36.799Z,30.50
2018-06-04T02:37:05.173Z,28.33
2018-06-04T02:39:33.524Z,28.27
2018-06-04T02:42:01.849Z,27.43
2018-06-04T02:44:30.198Z,28.87
2018-06-04T02:46:58.555Z,29.73
2018-06-04T02:49:26.911Z,29.47
2018-06-04T02:51:55.236Z,31.07
2018-06-04T02:54:23.575Z,30.83
2018-06-04T02:56:51.865Z,31.93
2018-06-04T02:59:20.195Z,29.93
2018-06-04T03:01:48.509Z,31.20
2018-06-04T03:04:16.810Z,31.77
2018-06-04T03:06:45.110Z,32.23
2018-06-04T03:09:13.439Z,31.63
2018-06-04T03:11:41.781Z,33.27
2018-06-04T03:14:10.127Z,31.73
2018-06-04T03:16:38.463Z,32.40
2018-06-04T03:19:06.537Z,32.43
2018-06-04T03:21:34.853Z,32.20
2018-06-04T03:24:03.236Z,32.63
2018-06-04T03:26:31.594Z,31.93
2018-06-04T03:29:00.708Z,34.40
2018-06-04T03:31:29.085Z,34.53
2018-06-04T03:33:57.451Z,35.67
2018-06-04T03:36:25.813Z,35.90
2018-06-04T03:38:54.141Z,34.60
2018-06-04T03:41:22.455Z,35.63
2018-06-04T03:43:50.745Z,33.47
2018-06-04T03:46:19.058Z,35.50
2018-06-04T03:48:47.400Z,35.90
2018-06-04T03:51:15.715Z,35.43
2018-06-04T03:53:44.045Z,35.93
2018-06-04T03:56:12.380Z,34.80
2018-06-04T03:58:40.736Z,36.13
2018-06-04T04:01:09.356Z,37.00
2018-06-04T04:03:37.691Z,37.83
2018-06-04T04:06:06.012Z,35.40
2018-06-04T04:08:34.343Z,37.10
2018-06-04T04:11:02.730Z,38.77
2018-06-04T04:13:31.085Z,38.33
2018-06-04T04:15:59.477Z,39.90
2018-06-04T04:18:27.839Z,40.30
2018-06-04T04:20:56.192Z,40.30
2018-06-04T04:23:24.282Z,38.03
2018-06-04T04:25:52.640Z,40.07
2018-06-04T04:28:20.973Z,38.47
2018-06-04T04:30:49.319Z,38.37
2018-06-04T04:33:17.667Z,38.43
2018-06-04T04:35:45.986Z,36.27
2018-06-04T04:38:14.315Z,33.97
2018-06-04T04:40:42.385Z,31.00
2018-06-04T04:43:10.717Z,30.03
2018-06-04T04:45:39.216Z,25.03
2018-06-04T04:48:07.695Z,23.60
2018-06-04T04:50:36.020Z,22.77
2018-06-04T04:53:04.336Z,22.20
2018-06-04T04:55:32.642Z,20.87
2018-06-04T04:58:00.984Z,19.40
2018-06-04T05:00:29.333Z,18.37
2018-06-04T05:02:57.688Z,17.87
2018-06-04T05:05:26.067Z,17.13
2018-06-04T05:07:54.451Z,17.37
2018-06-04T05:10:22.515Z,17.43
2018-06-04T05:12:50.841Z,18.10
2018-06-04T05:15:19.148Z,17.17
2018-06-04T05:17:47.468Z,15.93
2018-06-04T05:20:15.800Z,17.50
2018-06-04T05:22:44.126Z,17.43
2018-06-04T05:25:12.476Z,17.30
2018-06-04T05:27:40.803Z,16.67
2018-06-04T05:30:09.124Z,18.00
2018-06-04T05:32:37.472Z,18.47
2018-06-04T05:35:05.909Z,17.43
2018-06-04T05:37:34.273Z,17.40
2018-06-04T05:40:02.587Z,17.70
2018-06-04T05:42:30.898Z,17.50
2018-06-04T05:44:59.234Z,19.10
2018-06-04T05:47:27.580Z,18.87
2018-06-04T05:49:55.963Z,19.47
2018-06-04T05:52:24.283Z,19.27
2018-06-04T05:54:52.633Z,19.03
2018-06-04T05:57:21.062Z,18.70
2018-06-04T05:59:49.888Z,19.10
2018-06-04T06:02:18.200Z,18.67
2018-06-04T06:04:46.534Z,17.50
2018-06-04T06:07:14.886Z,18.47
2018-06-04T06:09:43.254Z,18.53
2018-06-04T06:12:11.610Z,18.77
2018-06-04T06:14:39.955Z,17.77
2018-06-04T06:17:08.284Z,18.73
2018-06-04T06:19:36.634Z,19.37
2018-06-04T06:22:05.018Z,19.20
2018-06-04T06:24:33.330Z,18.80
2018-06-04T06:27:01.644Z,18.90
2018-06-04T06:29:29.956Z,17.93
2018-06-04T06:31:58.265Z,18.73
2018-06-04T06:34:26.589Z,19.47
2018-06-04T06:36:54.952Z,17.53
2018-06-04T06:39:23.258Z,18.90
2018-06-04T06:41:51.603Z,18.83
2018-06-04T06:44:19.978Z,19.10
2018-06-04T06:46:48.364Z,19.67
2018-06-04T06:49:16.673Z,17.73
2018-06-04T06:51:45.021Z,19.23
2018-06-04T06:54:13.438Z,18.27
2018-06-04T06:56:41.821Z,18.33
2018-06-04T06:59:10.197Z,18.47
2018-06-04T07:01:38.538Z,17.27
2018-06-04T07:04:06.908Z,17.63
2018-06-04T07:06:35.268Z,17.63
2018-06-04T07:09:03.732Z,18.03
2018-06-04T07:11:32.126Z,18.03
2018-06-04T07:14:00.453Z,18.30
2018-06-04T07:16:28.800Z,16.53
2018-06-04T07:18:57.200Z,17.50
2018-06-04T07:21:25.578Z,16.80
2018-06-04T07:23:53.898Z,17.03
2018-06-04T07:26:22.297Z,17.33
2018-06-04T07:28:50.610Z,16.80
2018-06-04T07:31:18.910Z,17.90
2018-06-04T07:33:47.321Z,17.03
2018-06-04T07:36:15.652Z,15.90
2018-06-04T07:38:43.990Z,16.37
2018-06-04T07:41:12.310Z,16.00
2018-06-04T07:43:40.631Z,17.80
2018-06-04T07:46:08.945Z,16.73
2018-06-04T07:48:37.264Z,17.07
2018-06-04T07:51:05.634Z,16.07
2018-06-04T07:53:33.980Z,16.77
2018-06-04T07:56:02.323Z,16.90
2018-06-04T07:58:30.699Z,16.27
2018-06-04T08:00:59.035Z,17.80
2018-06-04T08:03:27.416Z,16.60
2018-06-04T08:05:55.741Z,17.20
2018-06-04T08:08:24.071Z,17.83
2018-06-04T08:10:52.729Z,17.43
2018-06-04T08:13:21.074Z,17.80
2018-06-04T08:15:49.437Z,17.27
2018-06-04T08:18:17.771Z,16.87
2018-06-04T08:20:46.117Z,16.90
2018-06-04T08:23:14.445Z,16.90
2018-06-04T08:25:42.812Z,17.20
2018-06-04T08:28:11.137Z,17.77
2018-06-04T08:30:39.537Z,18.43
2018-06-04T08:33:07.862Z,18.47
2018-06-04T08:35:36.214Z,16.80
2018-06-04T08:38:04.565Z,17.33
2018-06-04T08:40:32.921Z,17.50
2018-06-04T08:43:01.257Z,17.40
2018-06-04T08:45:29.578Z,19.23
2018-06-04T08:47:57.933Z,17.87
2018-06-04T08:50:26.252Z,18.13
2018-06-04T08:52:54.578Z,16.30
2018-06-04T08:55:22.908Z,16.90
2018-06-04T08:57:51.248Z,17.37
2018-06-04T09:00:19.596Z,17.40
2018-06-04T09:02:47.962Z,17.77
2018-06-04T09:05:16.340Z,17.80
2018-06-04T09:07:44.659Z,16.57
2018-06-04T09:10:12.999Z,17.90
2018-06-04T09:12:41.328Z,17.93
2018-06-04T09:15:09.660Z,16.43
2018-06-04T09:17:38.002Z,16.17
2018-06-04T09:20:06.368Z,17.90
2018-06-04T09:22:34.732Z,16.23
2018-06-04T09:25:03.074Z,17.87
2018-06-04T09:27:31.391Z,18.00
2018-06-04T09:29:59.760Z,17.80
2018-06-04T09:32:28.094Z,18.73
2018-06-04T09:34:56.419Z,18.80
2018-06-04T09:37:24.763Z,20.20
2018-06-04T09:39:53.123Z,20.73
2018-06-04T09:42:21.432Z,19.57
2018-06-04T09:44:49.760Z,20.73
2018-06-04T09:47:18.162Z,20.00
2018-06-04T09:49:46.517Z,20.17
2018-06-04T09:52:14.817Z,19.73
2018-06-04T09:54:43.138Z,20.53
2018-06-04T09:57:11.424Z,19.60
2018-06-04T09:59:39.766Z,18.93
2018-06-04T10:02:08.090Z,18.37
2018-06-04T10:04:36.404Z,19.53
2018-06-04T10:07:04.748Z,19.43
2018-06-04T10:09:33.110Z,18.30
2018-06-04T10:12:01.176Z,20.60
2018-06-04T10:14:29.512Z,19.43
2018-06-04T10:16:57.803Z,19.27
2018-06-04T10:19:26.125Z,20.27
2018-06-04T10:21:54.458Z,19.40
2018-06-04T10:24:22.772Z,19.37
2018-06-04T10:26:51.104Z,18.03
2018-06-04T10:29:19.410Z,19.10
2018-06-04T10:31:47.742Z,18.57
2018-06-04T10:34:16.084Z,18.83
2018-06-04T10:36:44.144Z,17.17
2018-06-04T10:39:12.475Z,16.83
2018-06-04T10:41:40.773Z,16.60
2018-06-04T10:44:09.111Z,16.23
2018-06-04T10:46:37.519Z,16.10
2018-06-04T10:49:05.868Z,17.37
2018-06-04T10:51:34.195Z,17.77
2018-06-04T10:54:02.508Z,17.00
2018-06-04T10:56:30.819Z,16.87
2018-06-04T10:58:59.161Z,16.83
2018-06-04T11:01:27.522Z,16.83
2018-06-04T11:03:55.883Z,17.30
2018-06-04T11:06:24.227Z,17.47
2018-06-04T11:08:52.557Z,16.87
2018-06-04T11:11:20.870Z,17.23
2018-06-04T11:13:49.187Z,15.33
2018-06-04T11:16:17.486Z,15.77
2018-06-04T11:18:45.855Z,15.50
2018-06-04T11:21:14.142Z,15.20
2018-06-04T11:23:48.825Z,15.30
2018-06-04T11:26:17.190Z,14.90
2018-06-04T11:28:45.534Z,14.70
2018-06-04T11:31:13.857Z,13.40
2018-06-04T11:33:42.183Z,12.37
2018-06-04T11:36:10.536Z,11.30
2018-06-04T11:38:38.847Z,10.53
2018-06-04T11:41:07.162Z,9.67
2018-06-04T11:43:35.499Z,9.13
2018-06-04T11:46:03.812Z,9.03
2018-06-04T11:48:32.171Z,8.20
2018-06-04T11:51:00.518Z,8.47
2018-06-04T11:53:28.851Z,9.13
2018-06-04T11:55:57.184Z,9.13
2018-06-04T11:58:25.511Z,9.73
2018-06-04T12:00:53.867Z,9.80
2018-06-04T12:03:22.151Z,9.57
2018-06-04T12:05:50.495Z,9.50
2018-06-04T12:08:18.795Z,10.40
2018-06-04T12:10:47.125Z,9.50
2018-06-04T12:13:15.471Z,9.63
2018-06-04T12:15:43.783Z,10.07
2018-06-04T12:18:12.137Z,9.53
2018-06-04T12:20:40.451Z,8.70
2018-06-04T12:23:08.793Z,9.07
2018-06-04T12:25:37.101Z,9.97
2018-06-04T12:28:05.191Z,9.03
2018-06-04T12:30:33.489Z,9.23
2018-06-04T12:33:01.800Z,9.30
2018-06-04T12:35:30.151Z,9.13
2018-06-04T12:37:58.507Z,9.90
2018-06-04T12:40:26.859Z,10.23
2018-06-04T12:42:55.213Z,10.83
2018-06-04T12:45:23.533Z,10.97
2018-06-04T12:47:51.857Z,10.77
2018-06-04T12:50:20.221Z,11.30
2018-06-04T12:52:48.573Z,11.67
2018-06-04T12:55:16.909Z,11.90
2018-06-04T12:57:45.231Z,11.70
2018-06-04T13:00:13.606Z,11.33
2018-06-04T13:02:41.971Z,11.17
2018-06-04T13:05:10.280Z,12.30
2018-06-04T13:07:38.623Z,11.20
2018-06-04T13:10:06.917Z,11.00
2018-06-04T13:12:35.231Z,10.43
2018-06-04T13:15:03.591Z,10.43
2018-06-04T13:17:31.949Z,10.07
2018-06-04T13:20:00.378Z,10.27
2018-06-04T13:22:28.717Z,11.47
2018-06-04T13:24:57.075Z,10.37
2018-06-04T13:27:25.441Z,9.63
2018-06-04T13:29:53.784Z,9.70
2018-06-04T13:32:22.170Z,10.07
2018-06-04T13:34:50.530Z,9.80
2018-06-04T13:37:18.881Z,9.67
2018-06-04T13:39:47.211Z,9.50
2018-06-04T13:42:15.569Z,9.30
2018-06-04T13:44:43.944Z,8.20
2018-06-04T13:47:12.287Z,8.23
2018-06-04T13:49:40.659Z,8.33
2018-06-04T13:52:09.051Z,8.00
2018-06-04T13:54:37.367Z,7.90
2018-06-04T13:57:05.778Z,8.40
2018-06-04T13:59:34.132Z,7.43
2018-06-04T14:02:02.439Z,7.93
2018-06-04T14:04:30.776Z,7.93
2018-06-04T14:06:59.119Z,7.80
2018-06-04T14:09:27.493Z,8.20
2018-06-04T14:11:55.827Z,7.67
2018-06-04T14:14:24.211Z,8.40
2018-06-04T14:16:52.515Z,7.83
2018-06-04T14:19:20.845Z,8.97
2018-06-04T14:21:49.167Z,8.83
2018-06-04T14:24:17.495Z,8.93
2018-06-04T14:26:45.823Z,9.17
2018-06-04T14:29:14.125Z,7.70
2018-06-04T14:31:42.515Z,7.40
2018-06-04T14:34:10.867Z,8.60
2018-06-04T14:36:39.161Z,8.07
2018-06-04T14:39:09.328Z,8.23
2018-06-04T14:41:37.869Z,8.40
2018-06-04T14:44:06.221Z,8.53
2018-06-04T14:46:34.537Z,8.60
2018-06-04T14:49:03.019Z,8.73
2018-06-04T14:51:31.459Z,9.47
2018-06-04T14:53:59.781Z,8.70
2018-06-04T14:56:28.119Z,9.33
2018-06-04T14:58:56.459Z,8.70
2018-06-04T15:01:24.766Z,9.13
2018-06-04T15:03:53.147Z,9.07
2018-06-04T15:06:21.458Z,9.60
2018-06-04T15:08:49.783Z,21.77
2018-06-04T15:11:18.138Z,18.90
2018-06-04T15:13:46.475Z,68.13
2018-06-04T15:16:14.818Z,19.80
2018-06-04T15:18:49.463Z,16.00
2018-06-04T15:21:17.809Z,13.20
2018-06-04T15:23:46.151Z,14.60
2018-06-04T15:26:14.481Z,14.07
2018-06-04T15:28:42.770Z,12.67
2018-06-04T15:31:11.103Z,12.03
2018-06-04T15:33:39.453Z,10.80
2018-06-04T15:36:07.803Z,10.10
2018-06-04T15:38:36.195Z,10.73
2018-06-04T15:41:04.541Z,10.90
2018-06-04T15:43:32.895Z,10.40
2018-06-04T15:46:01.087Z,10.87
2018-06-04T15:48:29.449Z,11.80
2018-06-04T15:50:57.816Z,11.70
2018-06-04T15:53:26.167Z,11.27
2018-06-04T15:55:54.473Z,11.67
2018-06-04T15:58:22.847Z,11.90
2018-06-04T16:00:51.177Z,11.67
2018-06-04T16:03:19.491Z,12.37
2018-06-04T16:05:47.862Z,11.80
2018-06-04T16:08:16.186Z,12.67
2018-06-04T16:10:44.501Z,14.33
2018-06-04T16:13:12.824Z,14.20
2018-06-04T16:15:41.184Z,13.67
2018-06-04T16:18:09.288Z,15.00
2018-06-04T16:20:37.651Z,15.60
2018-06-04T16:23:12.516Z,15.67
2018-06-04T16:25:40.869Z,15.57
2018-06-04T16:28:09.232Z,15.13
2018-06-04T16:30:37.569Z,14.37
2018-06-04T16:33:05.898Z,15.90
2018-06-04T16:35:34.245Z,14.23
2018-06-04T16:38:02.607Z,14.80
2018-06-04T16:40:30.933Z,14.73
2018-06-04T16:42:59.313Z,13.50
2018-06-04T16:45:27.693Z,13.87
2018-06-04T16:47:56.029Z,13.93
2018-06-04T16:50:24.407Z,13.73
2018-06-04T16:53:01.943Z,14.07
2018-06-04T16:55:30.272Z,15.30
2018-06-04T16:57:58.604Z,16.53
2018-06-04T17:00:26.930Z,16.87
2018-06-04T17:02:55.278Z,16.53
2018-06-04T17:05:23.622Z,17.23
2018-06-04T17:07:51.958Z,17.37
2018-06-04T17:10:20.262Z,16.80
2018-06-04T17:12:48.614Z,18.10
2018-06-04T17:15:16.943Z,18.20
2018-06-04T17:17:45.277Z,17.03
2018-06-04T17:20:13.678Z,18.63
2018-06-04T17:22:42.279Z,17.80
2018-06-04T17:25:10.615Z,17.57
2018-06-04T17:27:38.942Z,18.40
2018-06-04T17:30:07.259Z,16.60
2018-06-04T17:32:35.601Z,17.50
2018-06-04T17:35:03.981Z,16.50
2018-06-04T17:37:32.392Z,15.50
2018-06-04T17:40:00.732Z,16.67
2018-06-04T17:42:29.060Z,16.70
2018-06-04T17:44:57.419Z,16.63
2018-06-04T17:47:26.499Z,17.20
2018-06-04T17:49:54.883Z,16.37
2018-06-04T17:52:23.192Z,17.50
2018-06-04T17:54:51.230Z,17.10
2018-06-04T17:57:19.687Z,18.13
2018-06-04T17:59:48.023Z,17.37
2018-06-04T18:02:16.378Z,17.73
2018-06-04T18:04:44.746Z,17.13
2018-06-04T18:07:13.064Z,17.27
2018-06-04T18:09:41.416Z,16.73
2018-06-04T18:12:09.770Z,16.43
2018-06-04T18:14:38.149Z,17.13
2018-06-04T18:17:06.533Z,17.03
2018-06-04T18:19:34.877Z,15.83
2018-06-04T18:22:03.182Z,15.47
2018-06-04T18:24:31.533Z,14.33
2018-06-04T18:26:59.909Z,15.33
2018-06-04T18:29:28.261Z,15.40
2018-06-04T18:31:56.894Z,15.10
2018-06-04T18:34:25.287Z,15.23
2018-06-04T18:36:53.640Z,15.13
2018-06-04T18:39:22.013Z,15.77
2018-06-04T18:41:50.369Z,16.07
2018-06-04T18:44:18.768Z,15.70
2018-06-04T18:46:49.622Z,17.20
2018-06-04T18:49:18.062Z,17.30
2018-06-04T18:51:46.403Z,16.07
2018-06-04T18:54:14.817Z,17.83
2018-06-04T18:56:43.160Z,17.63
2018-06-04T18:59:11.505Z,17.53
2018-06-04T19:01:40.480Z,19.00
2018-06-04T19:04:08.889Z,17.73
2018-06-04T19:06:37.267Z,19.17
2018-06-04T19:09:08.794Z,18.97
2018-06-04T19:11:37.735Z,20.00
2018-06-04T19:14:06.164Z,19.23
2018-06-04T19:16:34.519Z,20.60
2018-06-04T19:19:02.951Z,18.70
2018-06-04T19:21:31.327Z,18.67
2018-06-04T19:23:59.722Z,19.17
2018-06-04T19:26:29.237Z,18.23
2018-06-04T19:28:57.600Z,18.57
2018-06-04T19:31:26.588Z,18.60
2018-06-04T19:33:55.047Z,16.17
2018-06-04T19:36:23.424Z,17.53
2018-06-04T19:38:51.864Z,18.20
2018-06-04T19:41:20.208Z,16.70
2018-06-04T19:43:48.626Z,15.97
2018-06-04T19:46:17.049Z,16.97
2018-06-04T19:48:45.408Z,17.17
2018-06-04T19:51:13.667Z,16.60
2018-06-04T19:53:42.094Z,14.17
2018-06-04T19:56:10.503Z,13.53
2018-06-04T19:58:38.823Z,13.87
2018-06-04T20:01:07.160Z,12.67
2018-06-04T20:03:35.641Z,12.87
2018-06-04T20:06:04.088Z,11.93
2018-06-04T20:08:32.461Z,12.03
2018-06-04T20:11:00.819Z,12.30
2018-06-04T20:13:29.133Z,11.83
2018-06-04T20:15:57.503Z,11.57
2018-06-04T20:18:25.970Z,11.87
2018-06-04T20:20:54.287Z,12.60
2018-06-04T20:23:22.405Z,12.30
2018-06-04T20:25:50.729Z,12.60
2018-06-04T20:28:19.102Z,12.20
2018-06-04T20:30:47.494Z,11.77
2018-06-04T20:33:15.865Z,12.37
2018-06-04T20:35:43.943Z,11.87
2018-06-04T20:38:12.274Z,12.40
2018-06-04T20:40:40.639Z,11.90
2018-06-04T20:43:08.941Z,11.20
2018-06-04T20:45:37.231Z,11.17
2018-06-04T20:48:05.856Z,11.53
2018-06-04T20:50:34.188Z,11.27
2018-06-04T20:53:02.490Z,12.17
2018-06-04T20:55:30.886Z,11.33
2018-06-04T20:57:59.232Z,11.13
2018-06-04T21:00:27.559Z,12.70
2018-06-04T21:02:55.899Z,12.87
2018-06-04T21:05:24.216Z,12.27
2018-06-04T21:07:52.556Z,12.43
2018-06-04T21:10:20.663Z,11.80
2018-06-04T21:12:49.015Z,11.63
2018-06-04T21:15:17.372Z,12.83
2018-06-04T21:17:45.731Z,13.90
2018-06-04T21:20:14.138Z,13.43
2018-06-04T21:22:42.560Z,13.70
2018-06-04T21:25:10.940Z,14.20
2018-06-04T21:27:39.314Z,14.80
2018-06-04T21:30:07.655Z,14.20
2018-06-04T21:32:35.738Z,13.87
2018-06-04T21:35:04.108Z,15.07
2018-06-04T21:37:32.427Z,15.43
2018-06-04T21:40:00.760Z,14.53
2018-06-04T21:42:29.128Z,14.83
2018-06-04T21:44:57.444Z,14.77
2018-06-04T21:47:25.724Z,15.20
2018-06-04T21:49:54.087Z,14.23
2018-06-04T21:52:22.422Z,15.60
2018-06-04T21:54:50.816Z,15.40
2018-06-04T21:57:19.128Z,15.37
2018-06-04T21:59:47.468Z,14.53
2018-06-04T22:02:15.850Z,14.40
2018-06-04T22:04:44.178Z,14.63
2018-06-04T22:07:12.500Z,14.73
2018-06-04T22:09:40.854Z,14.70
2018-06-04T22:12:09.174Z,16.57
2018-06-04T22:14:37.369Z,17.57
2018-06-04T22:17:05.832Z,17.43
2018-06-04T22:19:34.147Z,17.60
2018-06-04T22:22:02.481Z,16.90
2018-06-04T22:24:30.816Z,17.93
2018-06-04T22:26:59.116Z,17.93
2018-06-04T22:29:27.432Z,16.97
2018-06-04T22:31:55.761Z,18.43
2018-06-04T22:34:24.088Z,19.50
2018-06-04T22:36:52.424Z,19.80
2018-06-04T22:39:20.724Z,19.93
2018-06-04T22:41:49.044Z,19.43
2018-06-04T22:44:17.392Z,19.40
2018-06-04T22:46:45.741Z,19.10
2018-06-04T22:49:14.057Z,18.00
2018-06-04T22:51:42.450Z,16.63
2018-06-04T22:54:10.751Z,17.13
2018-06-04T22:56:39.065Z,16.33
2018-06-04T22:59:07.418Z,16.93
2018-06-04T23:01:35.498Z,18.33
2018-06-04T23:04:03.839Z,17.07
2018-06-04T23:06:32.163Z,16.27
2018-06-04T23:09:00.479Z,16.37
2018-06-04T23:11:28.816Z,17.30
2018-06-04T23:13:57.161Z,17.83
2018-06-04T23:16:25.558Z,16.90
2018-06-04T23:18:53.880Z,16.57
2018-06-04T23:21:22.192Z,17.03
2018-06-04T23:23:50.477Z,17.57
2018-06-04T23:26:18.771Z,16.97
2018-06-04T23:28:47.103Z,17.07
2018-06-04T23:31:15.379Z,17.00
2018-06-04T23:33:43.669Z,16.53
2018-06-04T23:36:11.987Z,17.60
2018-06-04T23:38:40.330Z,17.00
2018-06-04T23:41:08.714Z,16.57
2018-06-04T23:43:37.017Z,16.47
2018-06-04T23:46:05.382Z,14.93
2018-06-04T23:48:33.690Z,16.37
2018-06-04T23:51:01.980Z,16.17
2018-06-04T23:53:30.278Z,16.20
2018-06-04T23:55:58.622Z,14.90
2018-06-04T23:58:26.906Z,15.83
